createdAt,value
2022-12-22T00:01:05.269Z,98131.34
2022-12-22T00:03:51.667Z,98137.50
2022-12-22T00:06:38.006Z,98124.34
2022-12-22T00:09:23.965Z,98120.84
2022-12-22T00:12:10.089Z,98118.19
2022-12-22T00:14:55.995Z,98103.41
2022-12-22T00:17:47.012Z,98096.38
2022-12-22T00:20:35.320Z,98097.22
2022-12-22T00:23:21.475Z,98097.50
2022-12-22T00:26:07.900Z,98089.34
2022-12-22T00:28:54.667Z,98087.56
2022-12-22T00:31:41.561Z,98083.13
2022-12-22T00:34:33.098Z,98075.03
2022-12-22T00:37:19.541Z,98074.19
2022-12-22T00:40:05.339Z,98071.50
2022-12-22T00:42:51.203Z,98068.06
2022-12-22T00:45:37.646Z,98067.13
2022-12-22T00:48:24.460Z,98052.13
2022-12-22T00:51:11.807Z,98048.72
2022-12-22T00:53:57.725Z,98046.38
2022-12-22T00:56:43.945Z,98041.13
2022-12-22T00:59:30.126Z,98033.97
2022-12-22T01:02:16.187Z,98040.22
2022-12-22T01:05:01.835Z,98033.06
2022-12-22T01:07:48.942Z,98024.25
2022-12-22T01:10:35.043Z,98035.44
2022-12-22T01:13:21.072Z,98028.53
2022-12-22T01:16:07.039Z,98034.50
2022-12-22T01:18:52.839Z,98015.16
2022-12-22T01:21:39.649Z,98012.66
2022-12-22T01:24:30.831Z,98013.31
2022-12-22T01:27:17.444Z,98001.78
2022-12-22T01:30:03.820Z,98004.75
2022-12-22T01:32:49.677Z,97990.53
2022-12-22T01:35:38.582Z,97994.09
2022-12-22T01:38:24.918Z,97995.69
2022-12-22T01:41:13.820Z,97991.97
2022-12-22T01:43:59.609Z,97983.44
2022-12-22T01:46:48.067Z,97987.78
2022-12-22T01:49:37.456Z,97990.69
2022-12-22T01:52:25.255Z,97983.50
2022-12-22T01:55:11.605Z,97985.47
2022-12-22T01:57:59.385Z,97971.59
2022-12-22T02:00:45.273Z,97956.81
2022-12-22T02:03:35.484Z,97953.06
2022-12-22T02:06:33.520Z,97953.16
2022-12-22T02:09:37.342Z,97943.66
2022-12-22T02:12:30.125Z,97926.84
2022-12-22T02:15:24.093Z,97916.41
2022-12-22T02:18:18.676Z,97918.00
2022-12-22T02:21:11.563Z,97915.19
2022-12-22T02:24:11.004Z,97913.56
2022-12-22T02:27:03.369Z,97903.09
2022-12-22T02:29:53.240Z,97899.63
2022-12-22T02:32:41.732Z,97898.69
2022-12-22T02:35:32.889Z,97899.91
2022-12-22T02:38:28.970Z,97900.84
2022-12-22T02:41:28.367Z,97898.69
2022-12-22T02:44:33.018Z,97884.84
2022-12-22T02:47:24.901Z,97887.31
2022-12-22T02:50:14.124Z,97876.78
2022-12-22T02:53:03.058Z,97874.38
2022-12-22T02:55:50.196Z,97873.38
2022-12-22T02:58:37.375Z,97883.84
2022-12-22T03:01:24.867Z,97876.78
2022-12-22T03:04:11.165Z,97873.16
2022-12-22T03:06:56.960Z,97860.09
2022-12-22T03:09:42.884Z,97853.25
2022-12-22T03:12:28.976Z,97853.94
2022-12-22T03:15:14.690Z,97852.25
2022-12-22T03:18:02.360Z,97853.03
2022-12-22T03:20:48.287Z,97840.66
2022-12-22T03:23:34.479Z,97835.63
2022-12-22T03:26:02.930Z,97829.19
2022-12-22T03:28:31.318Z,97818.66
2022-12-22T03:31:01.852Z,97809.28
2022-12-22T03:33:32.529Z,97808.41
2022-12-22T03:36:01.556Z,97811.69
2022-12-22T03:38:30.021Z,97807.28
2022-12-22T03:40:58.461Z,97799.16
2022-12-22T03:43:44.651Z,97794.13
2022-12-22T03:46:32.673Z,97805.28
2022-12-22T03:49:13.120Z,97806.91
2022-12-22T03:51:43.668Z,97796.94
2022-12-22T03:54:13.822Z,97786.50
2022-12-22T03:56:42.904Z,97784.94
2022-12-22T03:59:12.173Z,97788.13
2022-12-22T04:01:43.553Z,97785.53
2022-12-22T04:04:14.807Z,97789.13
2022-12-22T04:06:43.335Z,97782.00
2022-12-22T04:09:11.933Z,97774.00
2022-12-22T04:11:58.538Z,97765.66
2022-12-22T04:14:33.365Z,97760.16
2022-12-22T04:17:03.130Z,97756.19
2022-12-22T04:19:32.981Z,97764.66
2022-12-22T04:22:01.717Z,97763.88
2022-12-22T04:24:30.054Z,97750.94
2022-12-22T04:26:58.412Z,97745.13
2022-12-22T04:29:26.754Z,97740.09
2022-12-22T04:31:55.162Z,97737.69
2022-12-22T04:34:23.662Z,97737.78
2022-12-22T04:36:53.415Z,97739.56
2022-12-22T04:39:21.801Z,97744.88
2022-12-22T04:41:50.152Z,97743.31
2022-12-22T04:44:19.161Z,97743.25
2022-12-22T04:46:47.582Z,97738.84
2022-12-22T04:49:16.049Z,97734.53
2022-12-22T04:51:44.372Z,97740.69
2022-12-22T04:54:14.325Z,97738.94
2022-12-22T04:56:42.706Z,97747.63
2022-12-22T04:59:11.042Z,97758.88
2022-12-22T05:01:39.542Z,97759.56
2022-12-22T05:04:08.030Z,97750.84
2022-12-22T05:06:36.463Z,97754.50
2022-12-22T05:09:04.993Z,97756.09
2022-12-22T05:11:34.755Z,97761.38
2022-12-22T05:14:07.156Z,97761.38
2022-12-22T05:16:36.404Z,97749.72
2022-12-22T05:19:04.876Z,97761.81
2022-12-22T05:21:33.210Z,97763.00
2022-12-22T05:24:01.620Z,97768.09
2022-12-22T05:26:30.047Z,97770.72
2022-12-22T05:28:59.817Z,97772.44
2022-12-22T05:31:28.710Z,97772.56
2022-12-22T05:33:57.273Z,97774.91
2022-12-22T05:36:25.574Z,97780.66
2022-12-22T05:38:53.941Z,97788.41
2022-12-22T05:41:22.358Z,97797.94
2022-12-22T05:43:50.784Z,97803.59
2022-12-22T05:46:20.614Z,97791.25
2022-12-22T05:48:49.113Z,97795.63
2022-12-22T05:51:17.656Z,97801.00
2022-12-22T05:53:45.993Z,97803.59
2022-12-22T05:56:14.360Z,97807.13
2022-12-22T05:58:42.714Z,97812.53
2022-12-22T06:01:11.054Z,97817.06
2022-12-22T06:03:40.923Z,97820.78
2022-12-22T06:06:09.439Z,97822.34
2022-12-22T06:08:37.821Z,97834.94
2022-12-22T06:11:06.499Z,97837.88
2022-12-22T06:13:34.888Z,97830.19
2022-12-22T06:16:03.304Z,97833.09
2022-12-22T06:18:32.309Z,97828.34
2022-12-22T06:21:02.110Z,97842.22
2022-12-22T06:23:30.516Z,97839.09
2022-12-22T06:26:00.407Z,97844.63
2022-12-22T06:28:29.710Z,97850.09
2022-12-22T06:30:58.228Z,97860.38
2022-12-22T06:33:26.740Z,97857.91
2022-12-22T06:35:58.834Z,97861.38
2022-12-22T06:38:31.959Z,97863.47
2022-12-22T06:41:04.876Z,97867.09
2022-12-22T06:43:32.299Z,97873.41
2022-12-22T06:46:00.853Z,97883.78
2022-12-22T06:48:29.275Z,97878.72
2022-12-22T06:51:00.928Z,97893.31
2022-12-22T06:53:30.688Z,97888.84
2022-12-22T06:55:59.006Z,97890.63
2022-12-22T06:58:35.705Z,97892.41
2022-12-22T07:02:02.818Z,97905.56
2022-12-22T07:04:31.633Z,97912.88
2022-12-22T07:07:00.048Z,97915.72
2022-12-22T07:09:29.822Z,97927.72
2022-12-22T07:11:58.181Z,97930.44
2022-12-22T07:14:26.507Z,97923.63
2022-12-22T07:16:55.009Z,97945.44
2022-12-22T07:19:23.649Z,97940.47
2022-12-22T07:21:52.163Z,97949.44
2022-12-22T07:24:24.834Z,97953.78
2022-12-22T07:26:54.582Z,97953.53
2022-12-22T07:29:23.106Z,97957.91
2022-12-22T07:31:51.627Z,97962.41
2022-12-22T07:34:20.089Z,97980.94
2022-12-22T07:36:48.529Z,97972.03
2022-12-22T07:39:19.993Z,97991.22
2022-12-22T07:42:05.995Z,98001.78
2022-12-22T07:44:35.569Z,98001.88
2022-12-22T07:47:04.048Z,98014.09
2022-12-22T07:49:49.908Z,98008.81
2022-12-22T07:52:18.307Z,98017.53
2022-12-22T07:54:46.735Z,98031.56
2022-12-22T07:57:15.143Z,98034.28
2022-12-22T07:59:44.887Z,98038.75
2022-12-22T08:02:13.447Z,98049.13
2022-12-22T08:04:42.458Z,98052.66
2022-12-22T08:07:10.936Z,98059.66
2022-12-22T08:09:39.633Z,98067.66
2022-12-22T08:12:08.258Z,98072.81
2022-12-22T08:14:36.749Z,98085.16
2022-12-22T08:17:06.483Z,98084.25
2022-12-22T08:19:35.174Z,98087.78
2022-12-22T08:22:03.593Z,98098.44
2022-12-22T08:24:32.087Z,98100.28
2022-12-22T08:27:04.420Z,98111.81
2022-12-22T08:29:36.609Z,98117.13
2022-12-22T08:32:07.180Z,98114.50
2022-12-22T08:34:49.743Z,98114.75
2022-12-22T08:37:21.195Z,98130.13
2022-12-22T08:39:54.039Z,98134.09
2022-12-22T08:42:25.134Z,98133.28
2022-12-22T08:44:54.080Z,98146.44
2022-12-22T08:47:24.370Z,98150.13
2022-12-22T08:49:53.184Z,98157.78
2022-12-22T08:52:21.581Z,98171.81
2022-12-22T08:54:50.067Z,98173.84
2022-12-22T08:57:18.437Z,98181.44
2022-12-22T08:59:48.139Z,98190.13
2022-12-22T09:02:16.707Z,98202.75
2022-12-22T09:04:46.738Z,98219.50
2022-12-22T09:07:15.835Z,98226.97
2022-12-22T09:09:45.339Z,98223.72
2022-12-22T09:12:13.767Z,98238.97
2022-12-22T09:14:42.477Z,98249.25
2022-12-22T09:17:11.275Z,98244.88
2022-12-22T09:19:40.125Z,98242.19
2022-12-22T09:22:11.513Z,98236.94
2022-12-22T09:24:39.957Z,98235.16
2022-12-22T09:27:09.161Z,98243.66
2022-12-22T09:29:37.887Z,98245.81
2022-12-22T09:32:06.910Z,98252.78
2022-12-22T09:34:35.326Z,98257.81
2022-12-22T09:37:06.389Z,98249.22
2022-12-22T09:39:38.460Z,98262.59
2022-12-22T09:42:15.369Z,98266.56
2022-12-22T09:44:46.493Z,98269.38
2022-12-22T09:47:22.456Z,98266.56
2022-12-22T09:49:51.809Z,98269.19
2022-12-22T09:52:26.639Z,98268.25
2022-12-22T09:54:56.736Z,98279.47
2022-12-22T09:57:31.606Z,98281.47
2022-12-22T10:00:07.754Z,98297.03
2022-12-22T10:02:51.551Z,98301.75
2022-12-22T10:05:28.476Z,98300.78
2022-12-22T10:08:03.894Z,98315.78
2022-12-22T10:10:33.845Z,98320.75
2022-12-22T10:13:04.683Z,98333.88
2022-12-22T10:15:36.595Z,98318.19
2022-12-22T10:18:13.687Z,98324.81
2022-12-22T10:20:43.830Z,98323.72
2022-12-22T10:23:21.609Z,98319.94
2022-12-22T10:29:02.892Z,98325.78
2022-12-22T10:31:33.139Z,98327.63
2022-12-22T10:34:12.729Z,98325.78
2022-12-22T10:36:43.870Z,98334.78
2022-12-22T10:39:21.193Z,98329.75
2022-12-22T10:41:55.043Z,98327.59
2022-12-22T10:44:27.196Z,98330.19
2022-12-22T10:46:58.174Z,98334.66
2022-12-22T10:49:30.553Z,98345.13
2022-12-22T10:52:12.328Z,98350.47
2022-12-22T10:54:42.619Z,98340.13
2022-12-22T10:57:29.581Z,98353.53
2022-12-22T10:59:59.474Z,98345.63
2022-12-22T11:02:31.196Z,98360.31
2022-12-22T11:05:06.010Z,98365.84
2022-12-22T11:07:36.950Z,98362.22
2022-12-22T11:10:17.832Z,98362.47
2022-12-22T11:13:02.591Z,98377.28
2022-12-22T11:15:40.237Z,98377.44
2022-12-22T11:18:22.645Z,98373.56
2022-12-22T11:20:58.323Z,98381.28
2022-12-22T11:23:34.216Z,98377.53
2022-12-22T11:26:13.343Z,98378.81
2022-12-22T11:29:18.647Z,98364.41
2022-12-22T11:31:58.880Z,98381.16
2022-12-22T11:34:55.074Z,98338.16
2022-12-22T11:38:13.936Z,98355.94
2022-12-22T11:41:16.155Z,98386.53
2022-12-22T11:43:59.569Z,98392.09
2022-12-22T11:46:38.458Z,98394.19
2022-12-22T11:49:23.539Z,98378.72
2022-12-22T11:52:12.652Z,98392.22
2022-12-22T11:54:53.941Z,98395.31
2022-12-22T11:57:33.088Z,98391.31
2022-12-22T12:00:08.669Z,98397.56
2022-12-22T12:03:15.923Z,98383.22
2022-12-22T12:06:24.059Z,98397.00
2022-12-22T12:09:07.202Z,98390.66
2022-12-22T12:11:44.022Z,98384.81
2022-12-22T12:14:24.112Z,98380.91
2022-12-22T12:16:59.216Z,98381.00
2022-12-22T12:19:46.877Z,98372.31
2022-12-22T12:22:26.824Z,98381.66
2022-12-22T12:25:02.108Z,98369.94
2022-12-22T12:27:46.774Z,98358.97
2022-12-22T13:40:58.035Z,98362.91
2022-12-22T13:43:31.687Z,98330.41
2022-12-22T13:46:05.647Z,98365.16
2022-12-22T13:48:50.864Z,98345.03
2022-12-22T13:51:52.865Z,98325.94
2022-12-22T13:54:57.677Z,98363.97
2022-12-22T13:57:28.016Z,98354.63
2022-12-22T13:59:57.742Z,98356.25
2022-12-22T14:02:33.753Z,98345.81
2022-12-22T14:05:13.409Z,98343.78
2022-12-22T14:07:42.769Z,98350.81
2022-12-22T14:10:55.346Z,98347.72
2022-12-22T14:14:24.495Z,98303.91
2022-12-22T14:17:09.678Z,98324.69
2022-12-22T14:20:31.968Z,98319.31
2022-12-22T14:24:03.303Z,98309.19
2022-12-22T14:26:40.570Z,98291.97
2022-12-22T14:29:18.463Z,98289.34
2022-12-22T14:32:00.490Z,98296.84
2022-12-22T14:34:36.850Z,98316.78
2022-12-22T14:37:05.405Z,98316.00
2022-12-22T14:39:34.649Z,98309.34
2022-12-22T14:42:23.287Z,98302.28
2022-12-22T14:44:54.947Z,98309.13
2022-12-22T14:47:26.517Z,98309.94
2022-12-22T14:49:58.457Z,98297.91
2022-12-22T14:52:35.814Z,98295.19
2022-12-22T14:55:09.211Z,98293.63
2022-12-22T14:57:54.355Z,98296.88
2022-12-22T15:00:36.997Z,98289.88
2022-12-22T15:03:23.919Z,98300.44
2022-12-22T15:05:53.544Z,98291.06
2022-12-22T15:08:49.370Z,98288.66
2022-12-22T15:11:21.458Z,98285.31
2022-12-22T15:13:59.831Z,98275.91
2022-12-22T15:16:29.735Z,98278.31
2022-12-22T15:18:58.809Z,98280.19
2022-12-22T15:21:27.520Z,98273.13
2022-12-22T15:23:55.911Z,98266.19
2022-12-22T15:26:24.291Z,98262.59
2022-12-22T15:28:52.775Z,98260.78
2022-12-22T15:31:21.471Z,98261.56
2022-12-22T15:33:51.145Z,98259.63
2022-12-22T15:36:19.561Z,98270.84
2022-12-22T15:38:47.892Z,98254.00
2022-12-22T15:41:16.249Z,98250.53
2022-12-22T15:44:00.114Z,98259.34
2022-12-22T15:46:30.641Z,98247.81
2022-12-22T15:49:01.310Z,98258.72
2022-12-22T15:51:32.157Z,98263.06
2022-12-22T15:54:01.296Z,98249.56
2022-12-22T15:56:33.263Z,98249.38
2022-12-22T15:59:02.549Z,98234.56
2022-12-22T16:01:30.926Z,98236.75
2022-12-22T16:04:00.749Z,98235.81
2022-12-22T16:06:29.682Z,98222.44
2022-12-22T16:08:58.124Z,98230.28
2022-12-22T16:11:26.707Z,98234.50
2022-12-22T16:13:55.190Z,98233.69
2022-12-22T16:16:23.662Z,98224.88
2022-12-22T16:18:52.148Z,98218.38
2022-12-22T16:21:27.745Z,98216.44
2022-12-22T16:23:56.945Z,98217.34
2022-12-22T16:26:25.265Z,98207.38
2022-12-22T16:28:53.741Z,98206.63
2022-12-22T16:31:24.177Z,98196.97
2022-12-22T16:33:53.309Z,98207.38
2022-12-22T16:36:23.014Z,98198.69
2022-12-22T16:38:51.314Z,98204.75
2022-12-22T16:41:23.119Z,98189.06
2022-12-22T16:43:52.755Z,98187.38
2022-12-22T16:46:23.269Z,98187.31
2022-12-22T16:48:53.866Z,98186.53
2022-12-22T16:51:26.253Z,98189.00
2022-12-22T16:53:55.099Z,98174.06
2022-12-22T16:56:26.828Z,98173.03
2022-12-22T16:58:55.782Z,98172.13
2022-12-22T17:01:35.955Z,98172.13
2022-12-22T17:04:08.457Z,98173.47
2022-12-22T17:06:39.062Z,98166.66
2022-12-22T17:09:12.227Z,98172.38
2022-12-22T17:11:41.135Z,98155.13
2022-12-22T17:14:23.904Z,98165.88
2022-12-22T17:16:53.489Z,98166.00
2022-12-22T17:19:21.929Z,98165.81
2022-12-22T17:21:53.213Z,98157.91
2022-12-22T17:24:28.151Z,98163.09
2022-12-22T17:27:00.795Z,98149.88
2022-12-22T17:29:29.991Z,98145.66
2022-12-22T17:31:58.397Z,98137.69
2022-12-22T17:34:27.739Z,98135.97
2022-12-22T17:36:59.218Z,98128.22
2022-12-22T17:39:27.764Z,98128.22
2022-12-22T17:41:57.536Z,98122.63
2022-12-22T17:44:27.232Z,98118.34
2022-12-22T17:46:55.731Z,98122.50
2022-12-22T17:49:24.678Z,98127.69
2022-12-22T17:51:53.231Z,98127.16
2022-12-22T17:54:25.349Z,98109.19
2022-12-22T17:56:57.498Z,98112.56
2022-12-22T17:59:25.879Z,98118.75
2022-12-22T18:01:54.268Z,98115.47
2022-12-22T18:04:22.697Z,98108.66
2022-12-22T18:06:51.463Z,98107.03
2022-12-22T18:09:22.502Z,98105.19
2022-12-22T18:11:52.248Z,98105.13
2022-12-22T18:14:22.471Z,98096.50
2022-12-22T18:16:50.979Z,98099.97
2022-12-22T18:19:19.636Z,98100.84
2022-12-22T18:21:48.143Z,98103.50
2022-12-22T18:24:17.724Z,98096.50
2022-12-22T18:26:47.440Z,98103.16
2022-12-22T18:29:18.110Z,98097.75
2022-12-22T18:31:46.657Z,98090.78
2022-12-22T18:34:15.129Z,98089.88
2022-12-22T18:36:45.374Z,98089.72
2022-12-22T18:39:18.705Z,98089.78
2022-12-22T18:41:47.452Z,98079.34
2022-12-22T18:44:18.635Z,98080.19
2022-12-22T18:46:48.600Z,98078.13
2022-12-22T18:49:17.426Z,98073.72
2022-12-22T18:51:46.402Z,98068.47
2022-12-22T18:54:36.239Z,98073.72
2022-12-22T18:57:04.853Z,98075.50
2022-12-22T18:59:34.538Z,98074.50
2022-12-22T19:02:16.229Z,98059.63
2022-12-22T19:04:44.655Z,98067.53
2022-12-22T19:07:16.206Z,98061.56
2022-12-22T19:09:44.657Z,98050.25
2022-12-22T19:12:14.932Z,98041.41
2022-12-22T19:14:46.690Z,98050.19
2022-12-22T19:17:20.652Z,98056.50
2022-12-22T19:19:49.333Z,98055.56
2022-12-22T19:22:17.695Z,98056.59
2022-12-22T19:24:46.058Z,98052.53
2022-12-22T19:27:20.531Z,98058.41
2022-12-22T19:29:52.919Z,98056.81
2022-12-22T19:32:25.746Z,98052.22
2022-12-22T19:34:54.211Z,98057.41
2022-12-22T19:37:22.594Z,98057.56
2022-12-22T19:39:50.928Z,98061.09
2022-12-22T19:42:22.755Z,98065.66
2022-12-22T19:44:52.526Z,98070.13
2022-12-22T19:47:26.675Z,98064.06
2022-12-22T19:49:55.041Z,98063.19
2022-12-22T19:52:23.335Z,98058.75
2022-12-22T19:54:51.693Z,98069.63
2022-12-22T19:57:23.100Z,98070.41
2022-12-22T19:59:54.926Z,98074.69
2022-12-22T20:02:27.342Z,98067.91
2022-12-22T20:04:56.763Z,98068.13
2022-12-22T20:07:27.170Z,98062.72
2022-12-22T20:09:55.565Z,98076.72
2022-12-22T20:12:27.144Z,98066.47
2022-12-22T20:14:57.287Z,98056.00
2022-12-22T20:17:26.019Z,98059.47
2022-12-22T20:19:54.315Z,98068.44
2022-12-22T20:22:23.798Z,98063.09
2022-12-22T20:24:54.314Z,98065.94
2022-12-22T20:27:26.625Z,98062.50
2022-12-22T20:29:55.159Z,98059.88
2022-12-22T20:32:28.082Z,98058.16
2022-12-22T20:34:56.974Z,98055.53
2022-12-22T20:37:26.198Z,98056.41
2022-12-22T20:39:54.625Z,98057.19
2022-12-22T20:42:24.879Z,98043.69
2022-12-22T20:45:02.669Z,98052.03
2022-12-22T20:47:35.140Z,98051.19
2022-12-22T20:50:03.699Z,98052.03
2022-12-22T20:52:32.035Z,98055.47
2022-12-22T20:55:00.439Z,98046.59
2022-12-22T20:57:28.922Z,98056.47
2022-12-22T20:59:57.264Z,98062.56
2022-12-22T21:02:28.960Z,98052.84
2022-12-22T21:04:59.095Z,98052.25
2022-12-22T21:07:27.583Z,98041.78
2022-12-22T21:09:55.985Z,98038.97
2022-12-22T21:12:24.537Z,98032.06
2022-12-22T21:14:52.954Z,98032.06
2022-12-22T21:17:21.560Z,98030.59
2022-12-22T21:19:50.292Z,98021.19
2022-12-22T21:22:19.966Z,98027.78
2022-12-22T21:24:48.359Z,98039.34
2022-12-22T21:27:20.880Z,98040.38
2022-12-22T21:29:49.405Z,98048.16
2022-12-22T21:32:17.783Z,98054.34
2022-12-22T21:34:46.182Z,98055.31
2022-12-22T21:37:18.143Z,98040.97
2022-12-22T21:39:49.346Z,98044.56
2022-12-22T21:42:19.523Z,98048.22
2022-12-22T21:44:47.927Z,98050.91
2022-12-22T21:47:19.595Z,98053.19
2022-12-22T21:49:48.007Z,98041.13
2022-12-22T21:52:16.480Z,98045.50
2022-12-22T21:54:44.804Z,98044.41
2022-12-22T21:57:16.599Z,98039.03
2022-12-22T21:59:45.003Z,98044.09
2022-12-22T22:02:17.287Z,98052.84
2022-12-22T22:04:53.700Z,98057.31
2022-12-22T22:07:22.790Z,98053.81
2022-12-22T22:09:51.147Z,98048.75
2022-12-22T22:12:36.967Z,98056.50
2022-12-22T22:15:05.704Z,98053.81
2022-12-22T22:17:34.000Z,98057.66
2022-12-22T22:20:02.349Z,98062.75
2022-12-22T22:22:30.739Z,98057.75
2022-12-22T22:24:59.047Z,98058.44
2022-12-22T22:27:29.150Z,98060.03
2022-12-22T22:29:57.668Z,98055.81
2022-12-22T22:32:26.155Z,98068.69
2022-12-22T22:34:54.786Z,98064.22
2022-12-22T22:37:23.240Z,98068.97
2022-12-22T22:39:52.562Z,98074.41
2022-12-22T22:42:20.900Z,98069.56
2022-12-22T22:44:50.612Z,98064.59
2022-12-22T22:47:19.011Z,98073.19
2022-12-22T22:49:47.325Z,98069.75
2022-12-22T22:52:15.750Z,98063.69
2022-12-22T22:54:44.075Z,98066.34
2022-12-22T22:57:12.483Z,98062.91
2022-12-22T22:59:40.853Z,98066.59
2022-12-22T23:02:11.690Z,98058.63
2022-12-22T23:04:40.295Z,98050.06
2022-12-22T23:07:08.607Z,98052.84
2022-12-22T23:09:36.948Z,98051.84
2022-12-22T23:12:06.094Z,98040.72
2022-12-22T23:14:34.667Z,98039.28
2022-12-22T23:17:03.018Z,98049.72
2022-12-22T23:19:32.918Z,98054.72
2022-12-22T23:22:01.475Z,98040.72
2022-12-22T23:24:31.128Z,98038.63
2022-12-22T23:26:59.807Z,98039.44
2022-12-22T23:29:28.376Z,98050.81
2022-12-22T23:31:57.025Z,98041.56
2022-12-22T23:34:25.438Z,98037.84
2022-12-22T23:36:55.235Z,98048.41
2022-12-22T23:39:23.781Z,98050.19
2022-12-22T23:41:52.064Z,98059.97
2022-12-22T23:44:20.448Z,98054.47
2022-12-22T23:46:48.855Z,98052.00
2022-12-22T23:49:17.289Z,98051.44
2022-12-22T23:51:47.179Z,98059.50
2022-12-22T23:54:16.922Z,98052.28
2022-12-22T23:56:45.260Z,98050.59
2022-12-22T23:59:13.772Z,98054.72
